createdAt,value
2022-10-31T00:00:30.775Z,23.10
2022-10-31T00:01:30.736Z,23.90
2022-10-31T00:02:30.869Z,21.30
2022-10-31T00:03:30.693Z,19.50
2022-10-31T00:04:30.719Z,21.30
2022-10-31T00:05:30.677Z,23.10
2022-10-31T00:06:30.689Z,24.60
2022-10-31T00:07:30.663Z,21.30
2022-10-31T00:08:30.646Z,19.20
2022-10-31T00:09:30.639Z,23.30
2022-10-31T00:10:30.615Z,24.10
2022-10-31T00:11:30.650Z,24.50
2022-10-31T00:12:30.606Z,23.40
2022-10-31T00:13:30.604Z,25.40
2022-10-31T00:14:30.579Z,26.30
2022-10-31T00:15:30.579Z,22.20
2022-10-31T00:16:30.574Z,28.90
2022-10-31T00:17:30.559Z,27.20
2022-10-31T00:18:30.533Z,23.90
2022-10-31T00:19:30.538Z,23.60
2022-10-31T00:20:30.523Z,24.30
2022-10-31T00:21:30.529Z,22.00
2022-10-31T00:22:30.491Z,20.40
2022-10-31T00:23:30.501Z,22.80
2022-10-31T00:24:30.486Z,25.20
2022-10-31T00:25:30.470Z,25.10
2022-10-31T00:26:30.481Z,23.70
2022-10-31T00:27:30.447Z,23.40
2022-10-31T00:28:30.446Z,20.80
2022-10-31T00:29:30.439Z,22.30
2022-10-31T00:30:30.423Z,28.10
2022-10-31T00:31:30.427Z,21.20
2022-10-31T00:33:02.624Z,21.90
2022-10-31T00:33:30.391Z,20.90
2022-10-31T00:34:30.382Z,26.00
2022-10-31T00:35:30.375Z,20.90
2022-10-31T00:36:30.378Z,25.60
2022-10-31T00:37:30.346Z,23.70
2022-10-31T00:38:30.346Z,19.50
2022-10-31T00:39:30.331Z,21.50
2022-10-31T00:40:30.322Z,27.50
2022-10-31T00:41:30.319Z,24.60
2022-10-31T00:42:30.305Z,24.60
2022-10-31T00:43:30.290Z,25.00
2022-10-31T00:44:30.289Z,22.90
2022-10-31T00:45:30.268Z,27.40
2022-10-31T00:46:30.281Z,24.40
2022-10-31T00:47:30.256Z,17.40
2022-10-31T00:48:30.247Z,23.10
2022-10-31T00:49:30.230Z,26.10
2022-10-31T00:50:30.226Z,25.60
2022-10-31T00:51:30.236Z,22.80
2022-10-31T00:52:30.199Z,22.60
2022-10-31T00:53:30.199Z,26.50
2022-10-31T00:54:30.178Z,25.10
2022-10-31T00:55:30.175Z,20.10
2022-10-31T00:56:30.189Z,19.10
2022-10-31T00:57:30.142Z,23.90
2022-10-31T00:58:30.154Z,23.10
2022-10-31T00:59:30.129Z,24.40
2022-10-31T01:00:30.126Z,28.50
2022-10-31T01:01:30.289Z,21.50
2022-10-31T01:02:30.238Z,21.90
2022-10-31T01:03:30.085Z,28.10
2022-10-31T01:04:30.078Z,26.60
2022-10-31T01:05:30.072Z,24.10
2022-10-31T01:06:30.067Z,21.50
2022-10-31T01:07:30.051Z,23.70
2022-10-31T01:08:30.040Z,18.70
2022-10-31T01:09:30.024Z,21.80
2022-10-31T01:10:30.029Z,26.50
2022-10-31T01:11:30.034Z,25.80
2022-10-31T01:12:30.000Z,22.20
2022-10-31T01:13:29.985Z,22.70
2022-10-31T01:14:29.975Z,25.40
2022-10-31T01:15:29.971Z,28.10
2022-10-31T01:16:29.978Z,20.30
2022-10-31T01:17:29.949Z,23.90
2022-10-31T01:18:29.940Z,25.20
2022-10-31T01:19:29.927Z,24.00
2022-10-31T01:20:29.920Z,18.60
2022-10-31T01:21:29.946Z,26.20
2022-10-31T01:22:29.894Z,22.50
2022-10-31T01:23:29.888Z,20.30
2022-10-31T01:24:29.881Z,27.10
2022-10-31T01:25:29.858Z,25.00
2022-10-31T01:26:29.878Z,24.20
2022-10-31T01:27:29.844Z,24.10
2022-10-31T01:28:29.837Z,28.10
2022-10-31T01:29:29.819Z,27.20
2022-10-31T01:30:29.812Z,26.30
2022-10-31T01:31:29.825Z,26.20
2022-10-31T01:32:29.795Z,23.80
2022-10-31T01:33:29.770Z,30.00
2022-10-31T01:34:29.762Z,23.40
2022-10-31T01:35:29.766Z,26.70
2022-10-31T01:36:29.776Z,23.40
2022-10-31T01:37:29.739Z,24.60
2022-10-31T01:38:29.730Z,21.30
2022-10-31T01:39:29.716Z,22.90
2022-10-31T01:40:29.713Z,22.20
2022-10-31T01:41:29.703Z,22.80
2022-10-31T01:42:29.694Z,22.10
2022-10-31T01:43:29.685Z,24.60
2022-10-31T01:44:29.675Z,21.40
2022-10-31T01:45:29.663Z,23.60
2022-10-31T01:46:29.664Z,30.80
2022-10-31T01:47:29.649Z,23.60
2022-10-31T01:48:29.635Z,22.40
2022-10-31T01:49:29.621Z,25.40
2022-10-31T01:50:29.614Z,23.20
2022-10-31T01:51:29.628Z,21.70
2022-10-31T01:52:29.599Z,21.30
2022-10-31T01:53:29.599Z,22.00
2022-10-31T01:54:29.573Z,20.90
2022-10-31T01:55:30.388Z,24.30
2022-10-31T01:56:30.581Z,23.90
2022-10-31T01:57:29.538Z,23.30
2022-10-31T01:58:29.532Z,24.40
2022-10-31T01:59:29.530Z,25.40
2022-10-31T02:00:29.509Z,27.00
2022-10-31T02:01:29.649Z,26.00
2022-10-31T02:02:29.626Z,20.50
2022-10-31T02:03:29.484Z,25.30
2022-10-31T02:04:29.476Z,24.60
2022-10-31T02:05:29.466Z,27.60
2022-10-31T02:06:29.476Z,20.30
2022-10-31T02:07:29.445Z,23.60
2022-10-31T02:08:29.439Z,22.70
2022-10-31T02:09:29.421Z,27.30
2022-10-31T02:10:29.411Z,26.90
2022-10-31T02:11:29.423Z,24.40
2022-10-31T02:12:29.392Z,25.50
2022-10-31T02:13:29.381Z,28.40
2022-10-31T02:14:29.377Z,29.80
2022-10-31T02:15:29.369Z,26.20
2022-10-31T02:16:29.367Z,25.40
2022-10-31T02:17:29.342Z,27.10
2022-10-31T02:18:29.339Z,28.10
2022-10-31T02:19:29.326Z,22.60
2022-10-31T02:20:29.312Z,29.60
2022-10-31T02:21:29.311Z,25.30
2022-10-31T02:22:29.295Z,25.70
2022-10-31T02:23:29.282Z,27.00
2022-10-31T02:24:29.278Z,25.20
2022-10-31T02:25:29.252Z,26.10
2022-10-31T02:26:29.280Z,23.80
2022-10-31T02:27:29.253Z,28.60
2022-10-31T02:28:29.237Z,28.00
2022-10-31T02:29:29.221Z,24.90
2022-10-31T02:30:29.225Z,23.00
2022-10-31T02:31:29.220Z,23.30
2022-10-31T02:32:29.196Z,25.50
2022-10-31T02:33:29.177Z,21.50
2022-10-31T02:34:29.168Z,23.00
2022-10-31T02:35:29.162Z,22.60
2022-10-31T02:36:29.171Z,22.40
2022-10-31T02:37:29.150Z,23.70
2022-10-31T02:38:29.138Z,28.90
2022-10-31T02:39:29.131Z,27.40
2022-10-31T02:40:29.115Z,24.60
2022-10-31T02:41:29.111Z,19.80
2022-10-31T02:42:29.093Z,21.40
2022-10-31T02:43:29.089Z,22.40
2022-10-31T02:44:29.077Z,22.80
2022-10-31T02:45:29.057Z,22.20
2022-10-31T02:46:29.071Z,22.60
2022-10-31T02:47:29.045Z,20.30
2022-10-31T02:48:29.040Z,25.50
2022-10-31T02:49:29.025Z,25.80
2022-10-31T02:50:29.015Z,26.70
2022-10-31T02:51:29.027Z,24.20
2022-10-31T02:52:28.994Z,21.60
2022-10-31T02:53:28.982Z,24.20
2022-10-31T02:54:28.964Z,24.50
2022-10-31T02:55:28.958Z,26.60
2022-10-31T02:58:14.193Z,21.60
2022-10-31T02:59:14.076Z,23.40
2022-10-31T03:03:06.582Z,19.30
2022-10-31T03:04:06.583Z,25.70
2022-10-31T03:05:06.564Z,20.10
2022-10-31T03:08:24.594Z,26.50
2022-10-31T03:08:52.821Z,23.40
2022-10-31T03:09:56.585Z,26.90
2022-10-31T03:12:24.322Z,23.10
2022-10-31T03:13:19.071Z,23.40
2022-10-31T03:14:19.019Z,23.30
2022-10-31T03:15:19.016Z,22.20
2022-10-31T03:16:20.146Z,23.80
2022-10-31T03:19:05.688Z,21.50
2022-10-31T03:20:05.974Z,22.00
2022-10-31T03:21:06.033Z,22.70
2022-10-31T03:22:05.235Z,22.30
2022-10-31T03:23:06.327Z,23.50
2022-10-31T03:24:06.373Z,28.30
2022-10-31T03:25:06.317Z,22.60
2022-10-31T03:26:06.325Z,22.40
2022-10-31T03:27:06.321Z,21.70
2022-10-31T03:28:06.552Z,24.20
2022-10-31T03:29:06.280Z,23.00
2022-10-31T03:30:06.265Z,24.70
2022-10-31T03:31:07.398Z,24.50
2022-10-31T03:32:07.265Z,26.10
2022-10-31T03:33:06.231Z,30.10
2022-10-31T03:34:06.211Z,24.30
2022-10-31T03:35:06.219Z,30.80
2022-10-31T03:36:06.241Z,21.80
2022-10-31T03:37:06.210Z,25.40
2022-10-31T03:38:07.881Z,23.90
2022-10-31T03:39:06.179Z,28.70
2022-10-31T03:40:07.108Z,24.90
2022-10-31T03:41:08.172Z,29.70
2022-10-31T03:42:06.170Z,22.70
2022-10-31T03:43:06.140Z,26.80
2022-10-31T03:44:06.134Z,27.30
2022-10-31T03:45:06.117Z,27.10
2022-10-31T03:46:06.109Z,23.10
2022-10-31T03:47:06.111Z,24.10
2022-10-31T03:48:06.098Z,20.90
2022-10-31T03:49:06.081Z,25.90
2022-10-31T03:50:06.075Z,25.40
2022-10-31T03:51:06.067Z,26.20
2022-10-31T03:52:06.072Z,30.10
2022-10-31T03:53:06.028Z,25.80
2022-10-31T03:54:06.059Z,29.60
2022-10-31T03:55:06.025Z,25.10
2022-10-31T03:56:06.022Z,21.40
2022-10-31T03:59:01.981Z,25.70
2022-10-31T03:59:51.107Z,26.00
2022-10-31T04:00:51.101Z,25.00
2022-10-31T04:01:51.213Z,25.10
2022-10-31T04:02:51.079Z,22.40
2022-10-31T04:03:51.065Z,24.70
2022-10-31T04:04:51.063Z,29.10
2022-10-31T04:05:51.050Z,26.50
2022-10-31T04:06:51.045Z,24.80
2022-10-31T04:07:52.160Z,28.70
2022-10-31T04:08:52.132Z,22.50
2022-10-31T04:09:52.134Z,25.20
2022-10-31T04:10:52.116Z,29.20
2022-10-31T04:11:52.108Z,29.10
2022-10-31T04:12:52.112Z,23.60
2022-10-31T04:13:52.087Z,24.50
2022-10-31T04:14:52.081Z,25.30
2022-10-31T04:15:52.063Z,25.30
2022-10-31T04:16:52.063Z,26.60
2022-10-31T04:17:52.072Z,27.30
2022-10-31T04:18:52.052Z,23.40
2022-10-31T04:19:52.035Z,22.90
2022-10-31T04:20:52.025Z,28.30
2022-10-31T04:21:52.018Z,26.40
2022-10-31T04:22:52.029Z,25.30
2022-10-31T04:23:52.000Z,28.70
2022-10-31T04:24:51.984Z,24.60
2022-10-31T04:25:51.981Z,23.70
2022-10-31T04:26:51.971Z,24.70
2022-10-31T04:27:51.958Z,25.20
2022-10-31T04:28:51.952Z,24.20
2022-10-31T04:29:51.943Z,24.90
2022-10-31T04:30:51.935Z,23.50
2022-10-31T04:31:51.905Z,27.90
2022-10-31T04:32:51.925Z,24.10
2022-10-31T04:33:51.901Z,26.00
2022-10-31T04:34:51.895Z,24.80
2022-10-31T04:35:51.875Z,25.20
2022-10-31T04:36:51.870Z,17.70
2022-10-31T04:37:51.875Z,23.20
2022-10-31T04:38:51.849Z,22.90
2022-10-31T04:39:51.845Z,25.70
2022-10-31T04:40:51.827Z,25.80
2022-10-31T04:41:51.819Z,22.80
2022-10-31T04:42:51.828Z,24.10
2022-10-31T04:43:51.794Z,23.60
2022-10-31T04:44:51.804Z,21.20
2022-10-31T04:45:51.778Z,25.30
2022-10-31T04:46:51.772Z,25.60
2022-10-31T04:47:51.795Z,28.70
2022-10-31T04:48:51.747Z,25.30
2022-10-31T04:49:51.742Z,26.20
2022-10-31T04:50:51.730Z,24.80
2022-10-31T04:51:51.717Z,28.90
2022-10-31T04:52:51.734Z,21.90
2022-10-31T04:53:51.706Z,25.30
2022-10-31T04:54:51.688Z,23.20
2022-10-31T04:55:51.688Z,24.90
2022-10-31T04:56:51.672Z,26.10
2022-10-31T04:57:51.678Z,24.90
2022-10-31T04:58:51.651Z,28.20
2022-10-31T04:59:51.644Z,22.20
2022-10-31T05:00:51.644Z,24.30
2022-10-31T05:01:51.721Z,23.40
2022-10-31T05:02:51.635Z,23.20
2022-10-31T05:03:51.599Z,26.90
2022-10-31T05:04:51.584Z,25.90
2022-10-31T05:05:51.584Z,33.10
2022-10-31T05:06:51.572Z,28.10
2022-10-31T05:07:51.575Z,26.50
2022-10-31T05:08:51.555Z,23.40
2022-10-31T05:09:51.541Z,27.20
2022-10-31T05:10:51.525Z,30.50
2022-10-31T05:11:51.514Z,24.60
2022-10-31T05:12:51.526Z,28.80
2022-10-31T05:13:51.504Z,22.90
2022-10-31T05:14:52.484Z,28.60
2022-10-31T05:15:51.461Z,28.10
2022-10-31T05:16:51.461Z,26.80
2022-10-31T05:17:51.470Z,23.40
2022-10-31T05:18:51.447Z,25.60
2022-10-31T05:19:51.437Z,22.90
2022-10-31T05:20:51.423Z,31.20
2022-10-31T05:21:51.425Z,27.50
2022-10-31T05:22:51.427Z,25.60
2022-10-31T05:23:51.404Z,25.60
2022-10-31T05:24:51.390Z,30.10
2022-10-31T05:25:51.384Z,24.80
2022-10-31T05:26:51.374Z,25.50
2022-10-31T05:27:51.380Z,24.50
2022-10-31T05:28:51.352Z,23.30
2022-10-31T05:29:51.374Z,24.90
2022-10-31T05:30:51.331Z,25.20
2022-10-31T05:31:51.311Z,27.10
2022-10-31T05:32:51.320Z,24.40
2022-10-31T05:33:51.306Z,22.00
2022-10-31T05:34:51.287Z,26.80
2022-10-31T05:35:51.282Z,29.40
2022-10-31T05:36:51.268Z,25.50
2022-10-31T05:37:51.276Z,25.60
2022-10-31T05:38:51.251Z,25.60
2022-10-31T05:39:51.230Z,23.90
2022-10-31T05:40:51.227Z,27.40
2022-10-31T05:41:51.219Z,28.50
2022-10-31T05:42:51.225Z,29.10
2022-10-31T05:43:51.200Z,29.40
2022-10-31T05:44:51.187Z,24.50
2022-10-31T05:45:51.174Z,29.20
2022-10-31T05:46:51.164Z,26.00
2022-10-31T05:47:51.177Z,20.40
2022-10-31T05:48:51.178Z,28.30
2022-10-31T05:49:51.134Z,30.80
2022-10-31T05:50:51.131Z,27.60
2022-10-31T05:51:51.111Z,37.00
2022-10-31T05:52:51.132Z,26.50
2022-10-31T05:53:51.100Z,34.10
2022-10-31T05:54:51.084Z,30.30
2022-10-31T05:55:51.071Z,26.40
2022-10-31T05:56:51.070Z,29.00
2022-10-31T05:57:51.076Z,27.60
2022-10-31T05:58:51.051Z,33.70
2022-10-31T05:59:54.734Z,32.50
2022-10-31T06:00:52.056Z,30.80
2022-10-31T06:01:51.075Z,25.20
2022-10-31T06:02:51.043Z,27.70
2022-10-31T06:03:51.034Z,25.10
2022-10-31T06:04:51.156Z,30.00
2022-10-31T06:05:54.946Z,22.90
2022-10-31T06:06:50.991Z,24.60
2022-10-31T06:07:50.985Z,26.00
2022-10-31T06:08:50.960Z,26.90
2022-10-31T06:09:50.953Z,26.00
2022-10-31T06:10:50.945Z,26.20
2022-10-31T06:11:50.936Z,24.60
2022-10-31T06:12:50.933Z,23.70
2022-10-31T06:13:50.912Z,22.50
2022-10-31T06:14:50.891Z,21.50
2022-10-31T06:15:50.893Z,19.20
2022-10-31T06:16:50.874Z,23.70
2022-10-31T06:17:51.882Z,15.60
2022-10-31T06:18:50.904Z,23.90
2022-10-31T06:20:50.835Z,18.90
2022-10-31T06:21:50.834Z,23.00
2022-10-31T06:22:50.837Z,21.90
2022-10-31T06:23:50.803Z,27.50
2022-10-31T06:24:50.793Z,19.90
2022-10-31T06:25:50.785Z,17.40
2022-10-31T06:26:50.777Z,21.10
2022-10-31T06:27:50.815Z,20.10
2022-10-31T06:28:50.760Z,20.80
2022-10-31T06:29:50.750Z,24.40
2022-10-31T06:30:50.738Z,21.40
2022-10-31T06:31:50.735Z,20.80
2022-10-31T06:33:18.432Z,19.80
2022-10-31T06:33:50.712Z,18.90
2022-10-31T06:34:50.703Z,18.10
2022-10-31T06:35:50.690Z,17.50
2022-10-31T06:36:50.680Z,16.90
2022-10-31T06:37:50.799Z,26.10
2022-10-31T06:38:50.654Z,26.40
2022-10-31T06:39:50.638Z,23.90
2022-10-31T06:40:50.647Z,19.40
2022-10-31T06:41:50.630Z,22.00
2022-10-31T06:42:50.663Z,17.50
2022-10-31T06:43:50.652Z,22.00
2022-10-31T06:44:50.595Z,22.40
2022-10-31T06:45:50.586Z,17.70
2022-10-31T06:46:50.580Z,19.50
2022-10-31T06:48:14.920Z,21.70
2022-10-31T06:48:52.557Z,23.60
2022-10-31T06:49:50.673Z,22.70
2022-10-31T06:50:50.543Z,18.80
2022-10-31T06:51:50.522Z,23.60
2022-10-31T06:52:50.543Z,21.90
2022-10-31T06:53:50.509Z,23.30
2022-10-31T06:54:50.496Z,20.80
2022-10-31T06:55:50.495Z,19.40
2022-10-31T06:56:50.480Z,18.40
2022-10-31T06:57:51.490Z,19.90
2022-10-31T06:58:50.463Z,20.40
2022-10-31T06:59:50.445Z,18.80
2022-10-31T07:00:50.482Z,19.30
2022-10-31T07:01:50.507Z,20.40
2022-10-31T07:02:50.441Z,21.70
2022-10-31T07:03:50.419Z,26.00
2022-10-31T07:04:50.406Z,21.40
2022-10-31T07:05:50.385Z,22.20
2022-10-31T07:06:51.973Z,23.60
2022-10-31T07:07:51.392Z,19.90
2022-10-31T07:08:50.355Z,20.30
2022-10-31T07:09:50.341Z,23.20
2022-10-31T07:10:50.342Z,24.10
2022-10-31T07:11:50.314Z,19.60
2022-10-31T07:12:50.316Z,23.80
2022-10-31T07:13:50.328Z,24.20
2022-10-31T07:14:50.292Z,18.20
2022-10-31T07:15:50.282Z,22.30
2022-10-31T07:16:50.267Z,25.40
2022-10-31T07:17:50.263Z,22.90
2022-10-31T07:18:50.274Z,23.50
2022-10-31T07:19:50.238Z,23.20
2022-10-31T07:20:50.232Z,26.90
2022-10-31T07:21:50.220Z,25.00
2022-10-31T07:22:50.855Z,24.90
2022-10-31T07:23:51.223Z,27.10
2022-10-31T07:24:50.182Z,23.50
2022-10-31T07:25:50.183Z,20.80
2022-10-31T07:26:50.273Z,21.80
2022-10-31T07:27:51.164Z,22.70
2022-10-31T07:28:50.166Z,17.20
2022-10-31T07:29:50.150Z,23.70
2022-10-31T07:30:50.136Z,25.00
2022-10-31T07:31:50.126Z,23.40
2022-10-31T07:32:50.116Z,24.20
2022-10-31T07:33:50.124Z,23.80
2022-10-31T07:34:50.092Z,23.50
2022-10-31T07:35:50.076Z,19.90
2022-10-31T07:36:50.077Z,23.10
2022-10-31T07:37:50.061Z,24.60
2022-10-31T07:38:50.071Z,24.30
2022-10-31T07:39:50.037Z,20.90
2022-10-31T07:40:50.029Z,23.10
2022-10-31T07:41:50.025Z,21.70
2022-10-31T07:42:50.008Z,22.50
2022-10-31T07:43:50.063Z,22.30
2022-10-31T07:44:51.544Z,24.20
2022-10-31T07:45:49.988Z,26.40
2022-10-31T07:46:49.981Z,23.70
2022-10-31T07:47:49.962Z,23.50
2022-10-31T07:48:49.972Z,23.00
2022-10-31T07:49:49.948Z,21.50
2022-10-31T07:50:49.927Z,23.00
2022-10-31T07:51:49.920Z,25.00
2022-10-31T07:52:49.918Z,21.00
2022-10-31T07:53:49.924Z,28.20
2022-10-31T07:54:49.895Z,18.90
2022-10-31T07:55:49.882Z,20.70
2022-10-31T07:56:49.864Z,25.20
2022-10-31T07:57:49.868Z,21.00
2022-10-31T07:58:49.876Z,25.40
2022-10-31T07:59:49.841Z,22.30
2022-10-31T08:00:49.956Z,20.80
2022-10-31T08:01:49.817Z,19.20
2022-10-31T08:02:49.817Z,20.50
2022-10-31T08:03:49.888Z,21.40
2022-10-31T08:04:49.789Z,25.60
2022-10-31T08:05:49.786Z,28.50
2022-10-31T08:06:49.769Z,26.10
2022-10-31T08:07:49.759Z,22.20
2022-10-31T08:08:49.770Z,26.10
2022-10-31T08:09:49.744Z,24.10
2022-10-31T08:10:49.737Z,23.50
2022-10-31T08:11:49.719Z,22.60
2022-10-31T08:12:49.703Z,23.00
2022-10-31T08:13:49.711Z,23.30
2022-10-31T08:14:49.698Z,21.90
2022-10-31T08:15:49.685Z,26.70
2022-10-31T08:16:49.662Z,22.30
2022-10-31T08:17:49.658Z,20.20
2022-10-31T08:18:49.675Z,22.70
2022-10-31T08:19:49.638Z,23.00
2022-10-31T08:20:49.622Z,26.50
2022-10-31T08:21:49.607Z,22.40
2022-10-31T08:22:49.603Z,27.30
2022-10-31T08:23:49.606Z,24.60
2022-10-31T08:24:49.584Z,24.10
2022-10-31T08:25:49.624Z,27.00
2022-10-31T08:26:49.568Z,27.60
2022-10-31T08:27:49.549Z,23.50
2022-10-31T08:28:49.553Z,25.40
2022-10-31T08:29:49.537Z,24.80
2022-10-31T08:30:49.518Z,25.40
2022-10-31T08:31:49.516Z,23.30
2022-10-31T08:32:49.510Z,25.20
2022-10-31T08:33:49.517Z,26.30
2022-10-31T08:34:49.495Z,24.70
2022-10-31T08:35:49.486Z,27.70
2022-10-31T08:36:49.466Z,27.60
2022-10-31T08:37:49.456Z,30.50
2022-10-31T08:38:49.488Z,26.50
2022-10-31T08:39:49.441Z,31.00
2022-10-31T08:40:49.422Z,28.90
2022-10-31T08:41:49.425Z,33.00
2022-10-31T08:42:49.405Z,30.00
2022-10-31T08:43:49.416Z,31.40
2022-10-31T08:44:49.388Z,29.00
2022-10-31T08:45:49.379Z,30.20
2022-10-31T08:46:49.366Z,32.10
2022-10-31T08:47:49.357Z,27.90
2022-10-31T08:48:49.361Z,34.20
2022-10-31T08:49:49.335Z,28.00
2022-10-31T08:50:49.326Z,30.50
2022-10-31T08:51:49.313Z,30.40
2022-10-31T08:53:04.617Z,29.60
2022-10-31T08:53:51.326Z,28.40
2022-10-31T08:54:49.288Z,23.10
2022-10-31T08:55:49.277Z,20.80
2022-10-31T08:56:49.261Z,23.50
2022-10-31T08:57:49.249Z,22.90
2022-10-31T08:58:49.257Z,26.10
2022-10-31T08:59:49.232Z,22.70
2022-10-31T09:03:10.626Z,25.40
2022-10-31T09:03:34.860Z,24.80
2022-10-31T09:04:34.829Z,20.70
2022-10-31T09:05:34.912Z,29.00
2022-10-31T09:08:30.584Z,25.40
2022-10-31T09:09:01.558Z,21.70
2022-10-31T09:11:35.848Z,17.20
2022-10-31T09:12:28.283Z,22.20
2022-10-31T09:15:30.332Z,20.80
2022-10-31T09:15:55.010Z,21.70
2022-10-31T09:16:55.002Z,20.10
2022-10-31T09:17:54.994Z,21.90
2022-10-31T09:18:55.002Z,17.60
2022-10-31T09:19:54.969Z,23.50
2022-10-31T09:20:54.966Z,21.40
2022-10-31T09:21:54.945Z,25.50
2022-10-31T09:22:56.062Z,23.00
2022-10-31T09:23:56.073Z,30.10
2022-10-31T09:24:56.047Z,22.00
2022-10-31T09:25:56.041Z,21.80
2022-10-31T09:26:56.032Z,26.10
2022-10-31T09:27:56.011Z,21.60
2022-10-31T09:28:56.026Z,19.00
2022-10-31T09:29:56.012Z,17.40
2022-10-31T09:30:55.972Z,21.60
2022-10-31T09:31:55.959Z,16.30
2022-10-31T09:32:55.962Z,23.50
2022-10-31T09:33:55.973Z,21.40
2022-10-31T09:34:55.968Z,24.20
2022-10-31T09:35:55.915Z,21.10
2022-10-31T09:36:55.922Z,22.20
2022-10-31T09:37:55.914Z,23.20
2022-10-31T09:38:55.929Z,26.30
2022-10-31T09:39:55.886Z,22.10
2022-10-31T09:40:55.875Z,22.90
2022-10-31T09:41:57.299Z,27.80
2022-10-31T09:42:56.859Z,22.60
2022-10-31T09:43:55.870Z,23.70
2022-10-31T09:44:55.847Z,23.40
2022-10-31T09:45:55.828Z,24.00
2022-10-31T09:46:55.820Z,26.10
2022-10-31T09:47:55.804Z,24.90
2022-10-31T09:48:55.826Z,18.50
2022-10-31T09:49:55.844Z,24.80
2022-10-31T09:50:55.783Z,20.40
2022-10-31T09:51:55.833Z,19.70
2022-10-31T09:52:55.757Z,24.50
2022-10-31T09:53:55.766Z,24.70
2022-10-31T09:54:55.743Z,29.90
2022-10-31T09:55:55.735Z,29.50
2022-10-31T09:56:55.727Z,27.30
2022-10-31T09:57:55.722Z,24.10
2022-10-31T09:58:55.727Z,28.20
2022-10-31T09:59:55.693Z,23.20
2022-10-31T10:00:55.771Z,23.00
2022-10-31T10:01:55.723Z,26.60
2022-10-31T10:02:55.663Z,31.90
2022-10-31T10:03:55.677Z,32.70
2022-10-31T10:04:55.647Z,37.40
2022-10-31T10:05:55.635Z,30.30
2022-10-31T10:06:55.658Z,26.00
2022-10-31T10:07:55.608Z,31.80
2022-10-31T10:08:55.637Z,34.40
2022-10-31T10:09:55.597Z,28.50
2022-10-31T10:10:55.594Z,29.30
2022-10-31T10:11:55.570Z,29.00
2022-10-31T10:12:55.569Z,26.30
2022-10-31T10:13:55.581Z,32.40
2022-10-31T10:14:55.567Z,31.50
2022-10-31T10:15:55.522Z,28.80
2022-10-31T10:16:55.529Z,36.40
2022-10-31T10:17:55.510Z,28.00
2022-10-31T10:18:55.528Z,30.70
2022-10-31T10:19:55.499Z,32.80
2022-10-31T10:20:55.490Z,35.50
2022-10-31T10:21:55.487Z,34.30
2022-10-31T10:22:55.468Z,30.50
2022-10-31T10:23:55.474Z,27.70
2022-10-31T10:24:55.481Z,34.80
2022-10-31T10:25:55.440Z,33.90
2022-10-31T10:26:55.434Z,30.70
2022-10-31T10:27:55.423Z,39.30
2022-10-31T10:28:55.431Z,27.00
2022-10-31T10:29:55.433Z,29.90
2022-10-31T10:30:55.399Z,33.40
2022-10-31T10:31:55.381Z,30.60
2022-10-31T10:32:55.390Z,31.70
2022-10-31T10:33:55.394Z,28.50
2022-10-31T10:34:55.361Z,28.20
2022-10-31T10:35:55.352Z,33.80
2022-10-31T10:36:55.346Z,28.40
2022-10-31T10:37:55.333Z,33.10
2022-10-31T10:38:55.339Z,37.90
2022-10-31T10:39:55.301Z,33.30
2022-10-31T10:40:55.301Z,33.10
2022-10-31T10:41:55.296Z,32.10
2022-10-31T10:42:55.282Z,35.90
2022-10-31T10:43:55.282Z,35.00
2022-10-31T10:44:55.256Z,42.30
2022-10-31T10:45:55.256Z,40.00
2022-10-31T10:46:55.248Z,40.40
2022-10-31T10:47:55.237Z,35.90
2022-10-31T10:48:55.243Z,37.60
2022-10-31T10:49:55.228Z,39.00
2022-10-31T10:50:55.204Z,41.70
2022-10-31T10:52:12.792Z,37.30
2022-10-31T10:52:57.205Z,41.20
2022-10-31T10:53:55.190Z,35.50
2022-10-31T10:54:55.159Z,35.40
2022-10-31T10:55:55.151Z,38.30
2022-10-31T10:56:55.136Z,37.30
2022-10-31T10:57:55.205Z,41.80
2022-10-31T10:58:55.142Z,35.90
2022-10-31T10:59:55.102Z,39.10
2022-10-31T11:00:55.219Z,38.10
2022-10-31T11:01:55.095Z,35.40
2022-10-31T11:02:55.087Z,41.30
2022-10-31T11:03:55.095Z,44.40
2022-10-31T11:04:55.068Z,42.80
2022-10-31T11:05:55.054Z,36.30
2022-10-31T11:06:55.051Z,41.10
2022-10-31T11:07:55.021Z,41.70
2022-10-31T11:08:55.074Z,39.40
2022-10-31T11:09:55.007Z,46.50
2022-10-31T11:10:55.005Z,38.60
2022-10-31T11:11:54.988Z,44.10
2022-10-31T11:12:54.989Z,46.80
2022-10-31T11:13:55.441Z,49.20
2022-10-31T11:14:54.961Z,42.10
2022-10-31T11:15:54.946Z,47.90
2022-10-31T11:16:54.939Z,46.20
2022-10-31T11:17:54.928Z,48.60
2022-10-31T11:18:54.964Z,43.30
2022-10-31T11:19:54.914Z,50.00
2022-10-31T11:20:54.916Z,48.10
2022-10-31T11:21:54.893Z,48.10
2022-10-31T11:22:54.882Z,46.30
2022-10-31T11:23:54.876Z,40.00
2022-10-31T11:24:54.860Z,43.40
2022-10-31T11:25:54.851Z,45.10
2022-10-31T11:26:54.886Z,42.50
2022-10-31T11:27:54.825Z,47.70
2022-10-31T11:28:54.865Z,44.50
2022-10-31T11:30:00.525Z,47.70
2022-10-31T11:30:56.804Z,43.20
2022-10-31T11:31:54.775Z,48.40
2022-10-31T11:32:54.772Z,45.10
2022-10-31T11:33:54.789Z,47.70
2022-10-31T11:34:54.765Z,44.50
2022-10-31T11:35:57.865Z,41.20
2022-10-31T11:36:54.740Z,44.10
2022-10-31T11:37:54.817Z,43.00
2022-10-31T11:38:54.742Z,44.50
2022-10-31T11:39:54.731Z,42.20
2022-10-31T11:40:54.720Z,42.00
2022-10-31T11:41:54.698Z,38.90
2022-10-31T11:42:54.681Z,40.60
2022-10-31T11:43:54.728Z,44.00
2022-10-31T11:44:55.672Z,38.70
2022-10-31T11:45:54.699Z,40.50
2022-10-31T11:46:54.652Z,39.00
2022-10-31T11:47:59.153Z,42.10
2022-10-31T11:48:55.742Z,42.60
2022-10-31T11:49:54.614Z,45.40
2022-10-31T11:50:54.629Z,39.00
2022-10-31T11:51:54.598Z,44.70
2022-10-31T11:53:57.029Z,43.50
2022-10-31T11:54:55.612Z,40.30
2022-10-31T11:55:54.555Z,36.80
2022-10-31T11:56:54.572Z,40.60
2022-10-31T11:57:55.561Z,38.30
2022-10-31T11:58:54.532Z,40.90
2022-10-31T11:59:54.588Z,38.50
2022-10-31T12:00:54.532Z,41.30
2022-10-31T12:01:54.642Z,36.50
2022-10-31T12:02:54.575Z,46.50
2022-10-31T12:03:54.477Z,43.30
2022-10-31T12:04:55.445Z,39.50
2022-10-31T12:05:54.467Z,36.40
2022-10-31T12:06:54.502Z,35.70
2022-10-31T12:07:54.445Z,37.20
2022-10-31T12:08:54.442Z,37.30
2022-10-31T12:09:54.447Z,40.80
2022-10-31T12:10:54.415Z,37.60
2022-10-31T12:11:54.410Z,42.00
2022-10-31T12:12:54.402Z,34.20
2022-10-31T12:13:54.403Z,35.90
2022-10-31T12:14:54.401Z,40.10
2022-10-31T12:15:54.373Z,37.20
2022-10-31T12:16:54.361Z,33.70
2022-10-31T12:17:54.389Z,36.80
2022-10-31T12:18:54.350Z,37.10
2022-10-31T12:19:56.152Z,35.80
2022-10-31T12:20:54.323Z,38.60
2022-10-31T12:21:54.318Z,34.90
2022-10-31T12:22:54.313Z,35.80
2022-10-31T12:23:54.295Z,35.50
2022-10-31T12:24:54.306Z,35.60
2022-10-31T12:25:54.297Z,34.40
2022-10-31T12:26:56.813Z,34.60
2022-10-31T12:31:07.629Z,36.50
2022-10-31T12:32:07.619Z,33.50
2022-10-31T12:33:07.610Z,38.00
2022-10-31T12:34:14.622Z,33.30
2022-10-31T12:35:07.590Z,42.80
2022-10-31T12:36:09.720Z,41.00
2022-10-31T12:37:08.575Z,35.90
2022-10-31T12:38:07.564Z,40.00
2022-10-31T12:39:07.568Z,33.00
2022-10-31T12:40:07.538Z,34.50
2022-10-31T12:41:07.541Z,37.70
2022-10-31T12:42:07.524Z,34.60
2022-10-31T12:43:07.523Z,33.20
2022-10-31T12:44:07.529Z,36.70
2022-10-31T12:45:07.495Z,37.20
2022-10-31T12:46:07.485Z,32.70
2022-10-31T12:47:07.476Z,37.30
2022-10-31T12:48:07.465Z,68.10
2022-10-31T12:49:08.601Z,84.20
2022-10-31T12:50:08.578Z,75.20
2022-10-31T12:51:08.559Z,115.30
2022-10-31T12:52:08.566Z,60.80
2022-10-31T12:53:08.582Z,68.50
2022-10-31T12:54:08.546Z,48.90
2022-10-31T12:55:08.514Z,50.40
2022-10-31T12:56:08.498Z,61.00
2022-10-31T12:57:08.494Z,46.10
2022-10-31T12:58:08.476Z,43.60
2022-10-31T12:59:08.480Z,36.30
2022-10-31T13:00:08.481Z,40.20
2022-10-31T13:01:08.532Z,37.90
2022-10-31T13:02:08.498Z,37.70
2022-10-31T13:03:08.445Z,45.40
2022-10-31T13:04:08.435Z,36.40
2022-10-31T13:05:08.454Z,36.30
2022-10-31T13:06:08.417Z,37.40
2022-10-31T13:07:08.414Z,37.60
2022-10-31T13:08:08.399Z,40.50
2022-10-31T13:09:08.403Z,34.60
2022-10-31T13:10:08.406Z,37.10
2022-10-31T13:11:08.372Z,42.60
2022-10-31T13:12:08.390Z,37.40
2022-10-31T13:13:08.365Z,37.50
2022-10-31T13:14:08.374Z,33.30
2022-10-31T13:15:08.334Z,36.70